Time;durP1;ratioP1;P1;durP2;ratioP2;P2;SDS_P1;SDS_P2;PMS_P1;PMS_P2;Temp;Humidity;BMP_temperature;BMP_pressure;BME280_temperature;BME280_humidity;BME280_pressure;Samples;Min_cycle;Max_cycle;Signal;HPM_P1;HPM_P2
2024/01/26 00:01:30;;;;;;;29.67;18.38;;;10.90;94.40;;;;;;5072492;28;20025;-34
2024/01/26 00:03:57;;;;;;;22.48;16.50;;;10.90;94.40;;;;;;5072577;28;20119;-34
2024/01/26 00:06:23;;;;;;;25.67;18.08;;;10.90;94.40;;;;;;5072766;28;20078;-35
2024/01/26 00:08:49;;;;;;;26.67;17.85;;;10.90;94.50;;;;;;5071965;28;20488;-34
2024/01/26 00:11:16;;;;;;;23.17;16.45;;;10.90;94.50;;;;;;5072487;28;20599;-33
2024/01/26 00:13:41;;;;;;;24.40;16.60;;;10.90;94.50;;;;;;5072336;28;20032;-34
2024/01/26 00:16:07;;;;;;;26.52;17.67;;;10.90;94.40;;;;;;5072365;28;20028;-33
2024/01/26 00:18:33;;;;;;;27.23;17.17;;;10.90;94.40;;;;;;5072248;28;20052;-34
2024/01/26 00:20:58;;;;;;;23.92;17.85;;;10.90;94.40;;;;;;5072050;28;20388;-33
2024/01/26 00:23:24;;;;;;;26.38;16.83;;;10.90;94.40;;;;;;5072353;28;20024;-34
2024/01/26 00:25:50;;;;;;;20.85;15.60;;;10.90;94.50;;;;;;5072283;28;20024;-34
2024/01/26 00:28:15;;;;;;;24.27;16.00;;;10.90;94.50;;;;;;5070884;28;20032;-34
2024/01/26 00:30:41;;;;;;;22.52;16.25;;;10.90;94.50;;;;;;5072106;28;20029;-34
2024/01/26 00:33:06;;;;;;;26.20;16.52;;;11.00;94.50;;;;;;5072133;28;20476;-32
2024/01/26 00:35:32;;;;;;;23.60;16.08;;;11.00;94.50;;;;;;5072174;28;20040;-35
2024/01/26 00:37:58;;;;;;;22.95;16.20;;;11.00;94.50;;;;;;5071888;28;20381;-34
2024/01/26 00:40:23;;;;;;;22.95;17.05;;;11.00;94.50;;;;;;5071825;28;20052;-36
2024/01/26 00:42:49;;;;;;;25.80;17.20;;;11.00;94.50;;;;;;5071967;28;20025;-34
2024/01/26 00:45:15;;;;;;;44.75;34.95;;;11.00;94.50;;;;;;5071824;28;20407;-34
2024/01/26 00:47:40;;;;;;;37.42;27.40;;;11.10;94.60;;;;;;5071888;28;20016;-34
2024/01/26 00:50:06;;;;;;;31.33;22.27;;;11.00;94.50;;;;;;5071828;28;20029;-34
2024/01/26 00:52:32;;;;;;;27.83;20.80;;;11.10;94.50;;;;;;5053990;28;20170;-35
2024/01/26 00:54:59;;;;;;;25.08;19.08;;;11.10;94.50;;;;;;5072214;28;20476;-34
2024/01/26 00:57:24;;;;;;;25.88;17.90;;;11.10;94.50;;;;;;5072054;28;20020;-33
2024/01/26 00:59:50;;;;;;;22.65;16.48;;;11.00;94.50;;;;;;5071730;28;20374;-34
2024/01/26 01:02:15;;;;;;;22.98;16.83;;;11.10;94.50;;;;;;5070331;28;20060;-34
2024/01/26 01:04:41;;;;;;;22.45;16.45;;;11.10;94.50;;;;;;5071805;28;20025;-35
2024/01/26 01:07:06;;;;;;;22.73;16.65;;;11.00;94.50;;;;;;5071704;28;20465;-34
2024/01/26 01:09:34;;;;;;;23.48;17.38;;;11.10;94.50;;;;;;5072107;28;20107;-35
2024/01/26 01:12:00;;;;;;;23.08;16.67;;;11.10;94.50;;;;;;5071945;28;20029;-34
2024/01/26 01:14:25;;;;;;;23.65;17.05;;;11.10;94.50;;;;;;5072057;28;20346;-34
2024/01/26 01:16:51;;;;;;;21.02;16.55;;;11.10;94.50;;;;;;5070251;28;20066;-40
2024/01/26 01:19:17;;;;;;;20.02;16.48;;;11.10;94.50;;;;;;5072770;28;20024;-34
2024/01/26 01:21:44;;;;;;;23.15;16.85;;;11.10;94.50;;;;;;5075675;28;20028;-35
2024/01/26 01:24:10;;;;;;;21.58;16.75;;;11.10;94.50;;;;;;5075955;28;20464;-34
2024/01/26 01:26:36;;;;;;;23.25;16.55;;;11.10;94.60;;;;;;5075639;28;20020;-34
2024/01/26 01:29:01;;;;;;;23.00;15.93;;;11.10;94.60;;;;;;5075795;28;20031;-35
2024/01/26 01:31:27;;;;;;;18.80;14.63;;;11.10;94.50;;;;;;5075557;28;20166;-33
2024/01/26 01:33:52;;;;;;;19.92;15.65;;;11.10;94.50;;;;;;5075515;28;20132;-33
2024/01/26 01:36:18;;;;;;;20.45;15.10;;;11.10;94.50;;;;;;5075523;28;20028;-32
2024/01/26 01:38:44;;;;;;;22.05;15.10;;;11.10;94.50;;;;;;5075182;28;20055;-34
2024/01/26 01:41:09;;;;;;;18.15;14.77;;;11.10;94.50;;;;;;5075071;28;20033;-33
2024/01/26 01:43:35;;;;;;;22.50;16.73;;;11.10;94.50;;;;;;5075659;28;20020;-34
2024/01/26 01:46:00;;;;;;;20.77;15.40;;;11.10;94.50;;;;;;5075094;28;20507;-34
2024/01/26 01:48:27;;;;;;;20.48;15.30;;;11.10;94.50;;;;;;5075091;28;20504;-35
2024/01/26 01:50:52;;;;;;;18.20;13.50;;;11.10;94.60;;;;;;5075337;28;20541;-34
2024/01/26 01:53:18;;;;;;;21.00;15.13;;;11.10;94.50;;;;;;5074111;28;20020;-34
2024/01/26 01:55:44;;;;;;;18.67;14.05;;;11.10;94.50;;;;;;5075171;28;20388;-34
2024/01/26 01:58:10;;;;;;;21.38;14.68;;;11.10;94.50;;;;;;5075209;28;20090;-33
2024/01/26 02:00:37;;;;;;;17.08;13.32;;;11.10;94.50;;;;;;5074675;28;20051;-34
2024/01/26 02:03:03;;;;;;;16.88;12.93;;;11.10;94.50;;;;;;5074825;28;20020;-35
2024/01/26 02:05:28;;;;;;;18.45;13.90;;;11.10;94.50;;;;;;5074724;28;20534;-35
2024/01/26 02:07:54;;;;;;;16.88;13.63;;;11.10;94.50;;;;;;5074928;28;20044;-34
2024/01/26 02:10:20;;;;;;;18.70;13.65;;;11.10;94.50;;;;;;5074621;28;20365;-34
2024/01/26 02:12:46;;;;;;;16.20;13.35;;;11.10;94.50;;;;;;5074678;28;20052;-33
2024/01/26 02:15:12;;;;;;;17.48;13.43;;;11.10;94.50;;;;;;5075065;28;20031;-34
2024/01/26 02:17:39;;;;;;;17.92;12.82;;;11.20;94.50;;;;;;5073287;28;20373;-34
2024/01/26 02:20:06;;;;;;;15.82;12.32;;;11.20;94.50;;;;;;5074711;28;20170;-35
2024/01/26 02:22:32;;;;;;;16.95;13.30;;;11.20;94.50;;;;;;5074522;28;20016;-34
2024/01/26 02:24:57;;;;;;;15.00;12.52;;;11.20;94.50;;;;;;5074482;28;20045;-35
2024/01/26 02:27:23;;;;;;;15.52;12.68;;;11.20;94.50;;;;;;5074527;28;20491;-34
2024/01/26 02:29:48;;;;;;;14.77;12.23;;;11.20;94.50;;;;;;5074671;28;20017;-33
2024/01/26 02:32:14;;;;;;;14.90;11.70;;;11.20;94.50;;;;;;5073681;28;20078;-34
2024/01/26 02:34:40;;;;;;;16.55;12.27;;;11.20;94.40;;;;;;5074325;28;20048;-33
2024/01/26 02:37:06;;;;;;;14.65;11.75;;;11.20;94.40;;;;;;5074566;28;20342;-34
2024/01/26 02:39:33;;;;;;;14.82;11.40;;;11.20;94.40;;;;;;5074025;28;20350;-33
2024/01/26 02:41:59;;;;;;;14.77;11.55;;;11.20;94.40;;;;;;5074235;28;20449;-33
2024/01/26 02:44:25;;;;;;;13.40;11.35;;;11.20;94.40;;;;;;5074208;28;20021;-34
2024/01/26 02:46:50;;;;;;;14.32;11.65;;;11.20;94.40;;;;;;5074051;28;20108;-33
2024/01/26 02:49:16;;;;;;;13.23;10.38;;;11.20;94.40;;;;;;5074462;28;20017;-34
2024/01/26 02:51:42;;;;;;;12.30;10.43;;;11.20;94.40;;;;;;5073903;28;20104;-33
2024/01/26 02:54:08;;;;;;;11.90;9.95;;;11.20;94.40;;;;;;5074103;28;20025;-33
2024/01/26 02:56:33;;;;;;;13.30;11.05;;;11.20;94.40;;;;;;5074072;28;20028;-34
2024/01/26 02:58:59;;;;;;;13.60;10.45;;;11.20;94.40;;;;;;5073601;28;20025;-33
2024/01/26 03:01:25;;;;;;;11.00;9.57;;;11.20;94.30;;;;;;5073609;28;20034;-33
2024/01/26 03:03:50;;;;;;;11.32;9.80;;;11.20;94.30;;;;;;5073950;28;20021;-34
2024/01/26 03:06:16;;;;;;;11.57;9.65;;;11.20;94.30;;;;;;5073960;28;20113;-32
2024/01/26 03:08:41;;;;;;;11.40;9.32;;;11.20;94.30;;;;;;5073822;28;20436;-34
2024/01/26 03:11:07;;;;;;;9.30;8.10;;;11.20;94.30;;;;;;5073603;28;20120;-33
2024/01/26 03:13:33;;;;;;;11.13;8.63;;;11.30;94.30;;;;;;5073987;28;20498;-33
2024/01/26 03:15:59;;;;;;;9.60;7.75;;;11.30;94.30;;;;;;5073777;28;20465;-34
2024/01/26 03:18:24;;;;;;;9.48;7.53;;;11.30;94.30;;;;;;5073512;28;20036;-33
2024/01/26 03:20:50;;;;;;;8.48;6.47;;;11.30;94.30;;;;;;5073481;28;20025;-32
2024/01/26 03:23:16;;;;;;;7.13;6.43;;;11.20;94.30;;;;;;5073615;28;20047;-34
2024/01/26 03:25:41;;;;;;;8.30;6.80;;;11.30;94.30;;;;;;5073283;28;20028;-33
2024/01/26 03:28:07;;;;;;;8.30;6.90;;;11.30;94.30;;;;;;5073504;28;20518;-32
2024/01/26 03:30:34;;;;;;;9.25;6.43;;;11.30;94.30;;;;;;5073218;28;20524;-33
2024/01/26 03:33:00;;;;;;;8.60;6.55;;;11.30;94.30;;;;;;5073159;28;20376;-33
2024/01/26 03:35:26;;;;;;;6.85;5.90;;;11.30;94.30;;;;;;5073149;28;20451;-32
2024/01/26 03:37:52;;;;;;;7.70;5.93;;;11.30;94.20;;;;;;5073352;28;20369;-34
2024/01/26 03:40:17;;;;;;;7.63;6.38;;;11.30;94.20;;;;;;5073123;28;20021;-34
2024/01/26 03:42:44;;;;;;;6.72;6.00;;;11.30;94.20;;;;;;5072122;28;20021;-34
2024/01/26 03:45:09;;;;;;;7.85;6.28;;;11.30;94.20;;;;;;5073028;28;20020;-34
2024/01/26 03:47:35;;;;;;;6.50;5.57;;;11.40;94.20;;;;;;5073157;28;20100;-33
2024/01/26 03:50:01;;;;;;;7.95;5.60;;;11.40;94.20;;;;;;5072663;28;20025;-34
2024/01/26 03:52:27;;;;;;;7.05;5.70;;;11.40;94.20;;;;;;5073064;28;20021;-34
2024/01/26 03:54:53;;;;;;;8.95;6.70;;;11.40;94.20;;;;;;5071414;28;20020;-34
2024/01/26 03:57:19;;;;;;;6.53;5.82;;;11.40;94.20;;;;;;5072869;28;20108;-33
2024/01/26 03:59:44;;;;;;;5.80;5.10;;;11.40;94.20;;;;;;5072453;28;20599;-35
2024/01/26 04:02:10;;;;;;;8.02;5.78;;;11.40;94.20;;;;;;5072370;28;20035;-34
2024/01/26 04:04:36;;;;;;;6.43;5.72;;;11.40;94.20;;;;;;5072707;28;20488;-34
2024/01/26 04:07:02;;;;;;;8.60;5.20;;;11.40;94.20;;;;;;5072559;28;20071;-34
2024/01/26 04:09:28;;;;;;;7.90;5.47;;;11.40;94.20;;;;;;5072774;28;20025;-34
2024/01/26 04:11:53;;;;;;;6.88;5.05;;;11.40;94.20;;;;;;5071314;28;20461;-34
2024/01/26 04:14:19;;;;;;;5.97;4.50;;;11.40;94.20;;;;;;5072686;28;20468;-33
2024/01/26 04:16:44;;;;;;;5.38;4.63;;;11.40;94.10;;;;;;5071124;28;20039;-35
2024/01/26 04:19:10;;;;;;;5.53;4.68;;;11.40;94.10;;;;;;5072323;28;20028;-35
2024/01/26 04:21:35;;;;;;;5.55;4.57;;;11.40;94.10;;;;;;5072433;28;20606;-34
2024/01/26 04:24:01;;;;;;;5.60;4.35;;;11.40;94.20;;;;;;5072333;28;20107;-34
2024/01/26 04:26:27;;;;;;;5.97;4.30;;;11.40;94.10;;;;;;5072473;28;20033;-34
2024/01/26 04:28:53;;;;;;;3.88;3.50;;;11.40;94.10;;;;;;5070960;28;20052;-34
2024/01/26 04:31:22;;;;;;;5.85;4.00;;;11.40;94.10;;;;;;5072245;28;20067;-34
2024/01/26 04:33:47;;;;;;;7.93;4.72;;;11.40;94.10;;;;;;5072102;28;20052;-34
2024/01/26 04:36:13;;;;;;;6.95;4.70;;;11.40;94.10;;;;;;5072221;28;20040;-34
2024/01/26 04:38:39;;;;;;;8.07;4.72;;;11.40;94.10;;;;;;5072066;28;20043;-33
2024/01/26 04:41:04;;;;;;;7.97;5.05;;;11.40;94.10;;;;;;5072040;28;20069;-34
2024/01/26 04:43:30;;;;;;;5.53;4.07;;;11.40;94.10;;;;;;5072298;28;20028;-34
2024/01/26 04:45:56;;;;;;;5.88;4.55;;;11.40;94.10;;;;;;5071961;28;20096;-34
2024/01/26 04:48:21;;;;;;;4.90;3.80;;;11.40;94.10;;;;;;5071937;28;20032;-33
2024/01/26 04:50:47;;;;;;;4.57;3.95;;;11.40;94.10;;;;;;5072323;28;20035;-33
2024/01/26 04:53:12;;;;;;;6.40;3.78;;;11.50;94.10;;;;;;5072002;28;20111;-34
2024/01/26 04:55:38;;;;;;;5.30;4.22;;;11.50;94.10;;;;;;5071540;28;20020;-33
2024/01/26 04:58:04;;;;;;;6.35;3.60;;;11.50;94.00;;;;;;5071904;28;20107;-33
2024/01/26 05:00:30;;;;;;;4.70;4.30;;;11.50;94.00;;;;;;5072037;28;20020;-34
2024/01/26 05:02:55;;;;;;;6.03;4.25;;;11.50;94.00;;;;;;5072063;28;20435;-34
2024/01/26 05:05:21;;;;;;;5.07;4.20;;;11.50;94.00;;;;;;5071852;28;20028;-33
2024/01/26 05:07:47;;;;;;;4.25;3.78;;;11.50;94.00;;;;;;5072133;28;20039;-33
2024/01/26 05:10:12;;;;;;;4.65;3.80;;;11.50;94.30;;;;;;5071729;28;20111;-34
2024/01/26 05:12:38;;;;;;;4.45;4.03;;;11.50;94.00;;;;;;5071972;28;20036;-33
2024/01/26 05:15:05;;;;;;;5.22;4.10;;;11.60;94.00;;;;;;5071859;28;20059;-34
2024/01/26 05:17:31;;;;;;;8.00;4.75;;;11.50;94.00;;;;;;5072021;28;20033;-33
2024/01/26 05:19:57;;;;;;;5.32;4.10;;;11.50;94.00;;;;;;5071669;28;20342;-33
2024/01/26 05:22:22;;;;;;;5.78;4.38;;;11.50;94.00;;;;;;5071846;28;20435;-33
2024/01/26 05:24:48;;;;;;;4.70;4.13;;;11.50;94.00;;;;;;5072013;28;20056;-32
2024/01/26 05:27:13;;;;;;;7.75;4.38;;;11.50;94.00;;;;;;5071768;28;20013;-34
2024/01/26 05:29:39;;;;;;;5.65;4.45;;;11.50;94.00;;;;;;5071569;28;20476;-33
2024/01/26 05:32:05;;;;;;;7.07;4.80;;;11.50;94.00;;;;;;5071623;28;20031;-34
2024/01/26 05:34:31;;;;;;;8.15;5.07;;;11.50;94.30;;;;;;5070217;28;20044;-35
2024/01/26 05:36:56;;;;;;;7.55;4.90;;;11.50;94.00;;;;;;5071312;28;20082;-34
2024/01/26 05:39:22;;;;;;;7.85;4.40;;;11.50;94.00;;;;;;5071259;28;20116;-34
2024/01/26 05:41:48;;;;;;;6.47;4.70;;;11.50;94.10;;;;;;5071420;28;20032;-34
2024/01/26 05:44:13;;;;;;;7.40;5.15;;;11.50;94.10;;;;;;5071532;28;20095;-34
2024/01/26 05:46:39;;;;;;;6.68;4.90;;;11.50;94.00;;;;;;5070068;28;20032;-33
2024/01/26 05:49:04;;;;;;;5.28;4.50;;;11.50;94.10;;;;;;5071421;28;20453;-34
2024/01/26 05:51:30;;;;;;;6.13;5.40;;;11.50;94.10;;;;;;5071411;28;20111;-33
2024/01/26 05:53:56;;;;;;;5.53;4.93;;;11.60;94.10;;;;;;5071368;28;20043;-33
2024/01/26 05:56:21;;;;;;;5.95;5.00;;;11.60;94.10;;;;;;5071454;28;20048;-33
2024/01/26 05:58:47;;;;;;;7.65;4.95;;;11.60;94.10;;;;;;5071176;28;20024;-34
2024/01/26 06:01:13;;;;;;;7.75;5.30;;;11.60;94.10;;;;;;5071449;28;20028;-34
2024/01/26 06:03:39;;;;;;;6.18;5.15;;;11.60;94.10;;;;;;5071472;28;20017;-33
2024/01/26 06:06:05;;;;;;;8.00;5.85;;;11.60;94.10;;;;;;5072093;28;20392;-34
2024/01/26 06:08:31;;;;;;;7.93;5.35;;;11.60;94.10;;;;;;5074977;28;20437;-34
2024/01/26 06:10:57;;;;;;;6.22;5.22;;;11.60;94.10;;;;;;5074770;28;20108;-34
2024/01/26 06:13:23;;;;;;;9.40;6.47;;;11.60;94.10;;;;;;5074648;28;20032;-34
2024/01/26 06:15:50;;;;;;;9.32;7.20;;;11.60;94.10;;;;;;5074744;28;20032;-34
2024/01/26 06:18:16;;;;;;;7.72;6.55;;;11.60;94.10;;;;;;5074563;28;20024;-34
2024/01/26 06:20:42;;;;;;;8.15;6.57;;;11.60;94.10;;;;;;5074517;28;20035;-34
2024/01/26 06:23:08;;;;;;;7.15;6.43;;;11.60;94.10;;;;;;5074847;28;20091;-33
2024/01/26 06:25:33;;;;;;;9.48;7.25;;;11.50;94.10;;;;;;5074626;28;20031;-34
2024/01/26 06:27:59;;;;;;;8.18;6.60;;;11.50;94.20;;;;;;5074516;28;20027;-33
2024/01/26 06:30:24;;;;;;;9.48;6.70;;;11.40;94.30;;;;;;5074276;28;20032;-33
2024/01/26 06:32:51;;;;;;;7.13;6.25;;;11.40;94.20;;;;;;5074394;28;20206;-34
2024/01/26 06:35:17;;;;;;;11.40;5.95;;;11.40;94.30;;;;;;5074335;28;20068;-34
2024/01/26 06:37:43;;;;;;;10.32;6.45;;;11.40;94.40;;;;;;5073189;28;20017;-34
2024/01/26 06:40:10;;;;;;;8.90;6.45;;;11.30;94.40;;;;;;5074070;28;20448;-33
2024/01/26 06:42:40;;;;;;;8.63;6.25;;;11.30;94.50;;;;;;5074288;28;20035;-34
2024/01/26 06:45:09;;;;;;;6.22;5.60;;;11.30;94.50;;;;;;5074481;28;20082;-34
2024/01/26 06:47:35;;;;;;;6.45;5.55;;;11.30;94.60;;;;;;5074202;28;20431;-34
2024/01/26 06:50:00;;;;;;;7.57;5.97;;;11.30;94.70;;;;;;5074023;28;20025;-33
2024/01/26 06:52:26;;;;;;;5.80;5.20;;;11.20;94.70;;;;;;5074131;28;20025;-34
2024/01/26 06:54:52;;;;;;;8.43;5.88;;;11.20;94.70;;;;;;5073845;28;20030;-36
2024/01/26 06:57:18;;;;;;;6.13;5.05;;;11.20;94.80;;;;;;5073964;28;20021;-35
2024/01/26 06:59:43;;;;;;;6.32;5.60;;;11.20;94.80;;;;;;5073592;28;20107;-33
2024/01/26 07:02:09;;;;;;;5.35;4.82;;;11.20;94.80;;;;;;5073560;28;20028;-34
2024/01/26 07:04:35;;;;;;;7.78;5.50;;;11.20;94.90;;;;;;5073988;28;20021;-33
2024/01/26 07:07:00;;;;;;;5.45;4.82;;;11.20;94.90;;;;;;5073656;28;20032;-33
2024/01/26 07:09:26;;;;;;;5.63;5.03;;;11.20;95.00;;;;;;5074117;28;20482;-33
2024/01/26 07:11:51;;;;;;;6.30;5.07;;;11.20;95.00;;;;;;5073917;28;20059;-33
2024/01/26 07:14:19;;;;;;;5.90;5.30;;;11.20;95.00;;;;;;5074008;28;20123;-34
2024/01/26 07:16:46;;;;;;;5.57;4.82;;;11.10;95.10;;;;;;5073448;28;20093;-34
2024/01/26 07:19:11;;;;;;;6.35;5.32;;;11.20;95.10;;;;;;5073699;28;20378;-33
2024/01/26 07:21:37;;;;;;;5.28;4.78;;;11.20;95.10;;;;;;5073666;28;20029;-32
2024/01/26 07:24:03;;;;;;;5.25;4.70;;;11.10;95.10;;;;;;5073600;28;20027;-34
2024/01/26 07:26:28;;;;;;;6.05;5.30;;;11.20;95.20;;;;;;5073367;28;20024;-34
2024/01/26 07:28:54;;;;;;;6.60;5.35;;;11.20;95.20;;;;;;5073396;28;20031;-34
2024/01/26 07:31:19;;;;;;;5.43;4.78;;;11.20;95.20;;;;;;5073251;28;20077;-34
2024/01/26 07:33:45;;;;;;;5.45;4.55;;;11.20;95.30;;;;;;5073094;28;20067;-33
2024/01/26 07:36:11;;;;;;;5.05;4.40;;;11.20;95.30;;;;;;5073574;28;20103;-34
2024/01/26 07:38:37;;;;;;;4.90;4.40;;;11.20;95.30;;;;;;5072217;28;20025;-34
2024/01/26 07:41:03;;;;;;;6.32;4.95;;;11.20;95.30;;;;;;5072930;28;20032;-34
2024/01/26 07:43:28;;;;;;;5.80;4.50;;;11.20;95.30;;;;;;5073388;28;20112;-34
2024/01/26 07:45:54;;;;;;;5.38;4.80;;;11.20;95.40;;;;;;5072871;28;20404;-35
2024/01/26 07:48:20;;;;;;;6.88;5.22;;;11.20;95.40;;;;;;5072948;28;20536;-34
2024/01/26 07:50:46;;;;;;;5.85;5.07;;;11.20;95.40;;;;;;5072777;28;20070;-35
2024/01/26 07:53:12;;;;;;;6.25;5.55;;;11.30;95.50;;;;;;5072890;28;20060;-34
2024/01/26 07:55:37;;;;;;;6.97;5.25;;;11.20;95.50;;;;;;5073302;28;20484;-35
2024/01/26 07:58:03;;;;;;;5.38;4.72;;;11.20;95.50;;;;;;5072694;28;20024;-34
2024/01/26 08:00:29;;;;;;;6.15;5.53;;;11.30;95.50;;;;;;5073059;28;20383;-35
2024/01/26 08:02:55;;;;;;;7.28;5.35;;;11.30;95.50;;;;;;5071429;28;20108;-34
2024/01/26 08:05:20;;;;;;;6.50;5.85;;;11.30;95.50;;;;;;5072622;28;20028;-33
2024/01/26 08:07:46;;;;;;;8.95;5.88;;;11.30;95.50;;;;;;5072646;28;20032;-34
2024/01/26 08:10:12;;;;;;;6.90;6.10;;;11.30;95.60;;;;;;5072553;28;20040;-34
2024/01/26 08:12:38;;;;;;;7.60;6.80;;;11.30;95.70;;;;;;5072774;28;20017;-34
2024/01/26 08:15:06;;;;;;;8.93;6.93;;;11.30;95.80;;;;;;5072760;28;20362;-34
2024/01/26 08:17:32;;;;;;;7.63;6.53;;;11.30;95.80;;;;;;5072709;28;20037;-33
2024/01/26 08:19:58;;;;;;;6.90;6.20;;;11.30;95.80;;;;;;5072289;28;20054;-35
2024/01/26 08:22:25;;;;;;;9.50;6.35;;;11.30;95.80;;;;;;5072486;28;20066;-35
2024/01/26 08:24:51;;;;;;;7.22;6.53;;;11.30;95.90;;;;;;5072285;28;20016;-34
2024/01/26 08:27:16;;;;;;;9.77;7.95;;;11.30;96.00;;;;;;5072735;28;20120;-35
2024/01/26 08:29:42;;;;;;;9.35;8.02;;;11.30;96.00;;;;;;5071811;28;20031;-34
2024/01/26 08:32:08;;;;;;;9.20;7.35;;;11.30;96.10;;;;;;5071584;28;20036;-35
2024/01/26 08:34:33;;;;;;;9.50;8.57;;;11.30;96.10;;;;;;5071498;28;20045;-35
2024/01/26 08:36:59;;;;;;;8.88;7.90;;;11.40;96.10;;;;;;5071219;28;20146;-35
2024/01/26 08:39:25;;;;;;;9.75;8.75;;;11.40;96.20;;;;;;5071504;28;20370;-34
2024/01/26 08:41:51;;;;;;;10.05;8.70;;;11.40;96.20;;;;;;5071237;28;20029;-34
2024/01/26 08:44:16;;;;;;;11.85;8.32;;;11.40;96.20;;;;;;5071308;28;20024;-34
2024/01/26 08:46:42;;;;;;;11.38;9.10;;;11.50;96.20;;;;;;5070984;28;20021;-33
2024/01/26 08:49:07;;;;;;;11.52;9.98;;;11.50;96.20;;;;;;5072062;28;20633;-35
2024/01/26 08:51:34;;;;;;;9.65;8.65;;;11.50;96.20;;;;;;5072210;28;20454;-34
2024/01/26 08:54:00;;;;;;;11.40;9.02;;;11.50;96.50;;;;;;5072166;28;20396;-33
2024/01/26 08:56:26;;;;;;;11.23;8.73;;;11.50;96.20;;;;;;5072079;28;20039;-34
2024/01/26 08:58:52;;;;;;;9.85;8.68;;;11.50;96.20;;;;;;5072247;28;20122;-36
2024/01/26 09:01:19;;;;;;;10.57;8.65;;;11.60;96.20;;;;;;5072215;28;20446;-35
2024/01/26 09:03:45;;;;;;;10.00;8.45;;;11.60;96.10;;;;;;5072179;28;20070;-34
2024/01/26 09:06:11;;;;;;;13.00;8.75;;;11.60;96.10;;;;;;5070745;28;20412;-34
2024/01/26 09:08:36;;;;;;;11.65;8.65;;;11.60;96.10;;;;;;5071758;28;20149;-35
2024/01/26 09:11:02;;;;;;;12.48;8.35;;;11.60;96.20;;;;;;5071940;28;20060;-33
2024/01/26 09:13:27;;;;;;;13.18;8.05;;;11.60;96.20;;;;;;5072299;28;20016;-34
2024/01/26 09:15:53;;;;;;;9.40;7.78;;;11.50;96.30;;;;;;5071967;28;20487;-34
2024/01/26 09:18:19;;;;;;;12.40;7.13;;;11.60;96.30;;;;;;5070499;28;20105;-34
2024/01/26 09:20:49;;;;;;;9.27;6.63;;;11.50;96.30;;;;;;5071941;28;20040;-35
2024/01/26 09:23:15;;;;;;;9.20;6.55;;;11.50;96.40;;;;;;5071798;28;20052;-35
2024/01/26 09:25:40;;;;;;;10.57;6.30;;;11.50;96.40;;;;;;5071840;28;20055;-35
2024/01/26 09:28:06;;;;;;;8.73;5.38;;;11.50;96.40;;;;;;5071661;28;20060;-36
2024/01/26 09:30:33;;;;;;;10.45;4.75;;;11.50;96.40;;;;;;5071966;28;20036;-35
2024/01/26 09:32:58;;;;;;;6.53;3.72;;;11.50;96.50;;;;;;5072025;28;20484;-35
2024/01/26 09:35:24;;;;;;;6.30;3.30;;;11.50;96.40;;;;;;5071639;28;20040;-35
2024/01/26 09:37:49;;;;;;;9.50;2.60;;;11.40;96.40;;;;;;5071848;28;20032;-36
2024/01/26 09:40:15;;;;;;;5.68;1.80;;;11.40;96.30;;;;;;5072608;28;20123;-36
2024/01/26 09:42:41;;;;;;;3.25;1.60;;;11.30;95.90;;;;;;5075764;28;20081;-34
2024/01/26 09:45:08;;;;;;;4.75;1.58;;;11.30;95.80;;;;;;5075268;28;20017;-36
2024/01/26 09:47:38;;;;;;;7.30;1.70;;;11.20;95.40;;;;;;5075257;28;20515;-36
2024/01/26 09:50:04;;;;;;;7.68;1.55;;;11.10;95.30;;;;;;5074756;28;20021;-36
2024/01/26 09:52:30;;;;;;;6.43;1.50;;;11.00;95.20;;;;;;5074802;28;20096;-35
2024/01/26 09:54:56;;;;;;;10.90;1.95;;;11.00;95.10;;;;;;5075256;28;20100;-36
2024/01/26 09:57:22;;;;;;;10.05;1.23;;;10.80;94.20;;;;;;5074935;28;20112;-36
2024/01/26 09:59:50;;;;;;;5.18;1.00;;;10.70;93.10;;;;;;5073307;28;20481;-36
2024/01/26 10:02:17;;;;;;;2.83;1.00;;;10.30;92.30;;;;;;5074533;28;20055;-35
2024/01/26 10:04:43;;;;;;;2.03;0.70;;;10.10;92.30;;;;;;5075262;28;20031;-34
2024/01/26 10:07:09;;;;;;;2.38;0.75;;;9.80;92.70;;;;;;5075035;28;20021;-35
2024/01/26 10:09:35;;;;;;;3.85;0.80;;;9.70;92.70;;;;;;5075023;28;20096;-36
2024/01/26 10:12:02;;;;;;;6.20;1.23;;;9.60;92.60;;;;;;5074818;28;20103;-36
2024/01/26 10:14:27;;;;;;;2.78;0.82;;;9.50;92.70;;;;;;5075194;28;20028;-36
2024/01/26 10:16:57;;;;;;;4.72;1.10;;;9.40;92.40;;;;;;5074762;28;20029;-35
2024/01/26 10:19:25;;;;;;;5.50;1.20;;;9.40;92.60;;;;;;5074692;28;20031;-36
2024/01/26 10:21:51;;;;;;;4.95;1.15;;;9.40;92.70;;;;;;5074986;28;20036;-36
2024/01/26 10:24:17;;;;;;;3.60;0.88;;;9.40;92.60;;;;;;5074715;28;20025;-37
2024/01/26 10:26:43;;;;;;;5.07;0.98;;;9.40;92.30;;;;;;5074462;28;20016;-35
2024/01/26 10:29:10;;;;;;;8.60;1.60;;;9.50;92.30;;;;;;5074623;28;20016;-35
2024/01/26 10:31:37;;;;;;;6.20;1.10;;;9.40;92.10;;;;;;5073162;28;20028;-35
2024/01/26 10:34:05;;;;;;;3.60;1.23;;;9.50;92.10;;;;;;5074409;28;20048;-35
2024/01/26 10:36:33;;;;;;;9.65;1.60;;;9.50;92.10;;;;;;5074495;28;20029;-34
2024/01/26 10:39:00;;;;;;;6.95;1.30;;;9.50;91.70;;;;;;5074314;28;20020;-35
2024/01/26 10:41:29;;;;;;;7.78;1.83;;;9.50;91.70;;;;;;5074485;28;20154;-35
2024/01/26 10:43:56;;;;;;;9.00;1.88;;;9.50;91.50;;;;;;5074291;28;20091;-34
2024/01/26 10:46:24;;;;;;;5.03;1.58;;;9.60;90.90;;;;;;5074252;28;20020;-35
2024/01/26 10:48:52;;;;;;;5.63;1.35;;;9.60;90.70;;;;;;5074263;28;20067;-35
2024/01/26 10:51:19;;;;;;;9.82;1.90;;;9.60;90.90;;;;;;5074312;28;20025;-35
2024/01/26 10:53:46;;;;;;;8.27;1.73;;;9.60;90.30;;;;;;5074061;28;20024;-36
2024/01/26 10:56:12;;;;;;;10.55;1.83;;;9.60;89.00;;;;;;5074171;28;20028;-33
2024/01/26 10:58:37;;;;;;;8.85;2.55;;;9.70;89.10;;;;;;5072787;28;20028;-35
2024/01/26 11:01:05;;;;;;;7.80;1.83;;;9.70;88.90;;;;;;5074196;28;20558;-35
2024/01/26 11:03:31;;;;;;;9.75;1.80;;;9.80;89.30;;;;;;5074045;28;20054;-35
2024/01/26 11:05:58;;;;;;;9.95;1.70;;;9.80;87.70;;;;;;5074133;28;20017;-35
2024/01/26 11:08:25;;;;;;;11.80;1.70;;;9.80;83.20;;;;;;5073690;28;20020;-35
2024/01/26 11:10:52;;;;;;;10.63;1.80;;;9.80;85.10;;;;;;5073772;28;20059;-35
2024/01/26 11:13:17;;;;;;;8.23;2.10;;;9.90;83.40;;;;;;5073850;28;20029;-34
2024/01/26 11:15:46;;;;;;;7.57;2.40;;;9.90;83.50;;;;;;5073963;28;20128;-34
2024/01/26 11:18:25;;;;;;;8.95;2.20;;;10.00;81.90;;;;;;5073568;28;20385;-35
2024/01/26 11:20:51;;;;;;;12.00;2.30;;;9.90;81.20;;;;;;5073862;28;20032;-35
2024/01/26 11:23:17;;;;;;;10.85;2.15;;;9.90;80.00;;;;;;5073611;28;20078;-35
2024/01/26 11:25:44;;;;;;;14.38;2.15;;;9.90;81.80;;;;;;5073454;28;20028;-35
2024/01/26 11:28:14;;;;;;;6.13;1.60;;;10.00;80.30;;;;;;5073500;28;20023;-34
2024/01/26 11:30:40;;;;;;;6.82;1.75;;;10.00;81.10;;;;;;5072142;28;20047;-35
2024/01/26 11:33:17;;;;;;;8.77;2.00;;;10.00;80.90;;;;;;5073398;28;20481;-36
2024/01/26 11:35:42;;;;;;;8.20;1.40;;;10.00;81.30;;;;;;5073405;28;20747;-34
2024/01/26 11:38:08;;;;;;;7.07;1.70;;;10.10;80.90;;;;;;5073249;28;20099;-34
2024/01/26 11:40:35;;;;;;;8.32;2.05;;;10.10;80.70;;;;;;5073058;28;20020;-34
2024/01/26 11:43:00;;;;;;;6.60;1.75;;;10.10;78.80;;;;;;5073620;28;20149;-34
2024/01/26 11:45:32;;;;;;;11.48;2.00;;;10.10;78.00;;;;;;5073329;28;20031;-36
2024/01/26 11:47:57;;;;;;;9.98;2.13;;;10.00;77.40;;;;;;5073083;28;20021;-34
2024/01/26 11:50:23;;;;;;;10.70;2.00;;;10.00;77.40;;;;;;5071807;28;20020;-35
2024/01/26 11:52:49;;;;;;;7.80;1.95;;;10.00;78.40;;;;;;5072991;28;20027;-34
2024/01/26 11:55:15;;;;;;;9.57;2.00;;;10.00;77.30;;;;;;5073044;28;20169;-36
2024/01/26 11:57:41;;;;;;;6.55;1.70;;;10.00;75.90;;;;;;5072954;28;20025;-35
2024/01/26 12:00:09;;;;;;;5.65;1.92;;;9.90;76.90;;;;;;5072535;28;20025;-34
2024/01/26 12:02:35;;;;;;;7.00;1.70;;;10.00;78.00;;;;;;5072671;28;20044;-34
2024/01/26 12:05:01;;;;;;;10.48;1.70;;;9.90;77.10;;;;;;5071964;28;20048;-33
2024/01/26 12:07:26;;;;;;;16.10;2.70;;;10.00;77.00;;;;;;5072860;28;20028;-34
2024/01/26 12:09:52;;;;;;;10.80;2.25;;;10.00;76.30;;;;;;5072688;28;20141;-33
2024/01/26 12:12:18;;;;;;;8.70;2.20;;;9.90;75.30;;;;;;5072771;28;20385;-35
2024/01/26 12:14:44;;;;;;;10.13;2.45;;;9.90;74.80;;;;;;5072738;28;20482;-33
2024/01/26 12:17:10;;;;;;;9.98;2.55;;;9.90;75.00;;;;;;5072566;28;20393;-33
2024/01/26 12:19:37;;;;;;;15.05;3.28;;;9.80;74.50;;;;;;5072459;28;20020;-35
2024/01/26 12:22:09;;;;;;;13.07;2.38;;;9.80;73.40;;;;;;5072429;28;20048;-33
2024/01/26 12:24:35;;;;;;;13.98;2.28;;;9.80;73.90;;;;;;5072565;28;20028;-34
2024/01/26 12:27:05;;;;;;;13.07;2.72;;;9.80;74.40;;;;;;5072571;28;20020;-33
2024/01/26 12:29:32;;;;;;;12.05;2.55;;;9.80;74.60;;;;;;5072524;28;20031;-34
2024/01/26 12:32:12;;;;;;;10.90;2.47;;;9.80;74.30;;;;;;5072593;28;20021;-34
2024/01/26 12:34:38;;;;;;;7.80;1.95;;;9.80;74.00;;;;;;5072381;28;20036;-35
2024/01/26 12:37:11;;;;;;;10.77;2.08;;;9.70;74.80;;;;;;5072321;28;20025;-34